createdAt,value
2022-09-10T00:01:34.464Z,19.80
2022-09-10T00:04:04.574Z,19.80
2022-09-10T00:06:35.577Z,19.83
2022-09-10T00:09:03.757Z,19.89
2022-09-10T00:11:32.332Z,19.86
2022-09-10T00:14:01.350Z,19.83
2022-09-10T00:16:31.049Z,19.77
2022-09-10T00:19:02.269Z,19.77
2022-09-10T00:21:31.123Z,19.73
2022-09-10T00:23:59.816Z,19.66
2022-09-10T00:26:30.145Z,19.60
2022-09-10T00:29:00.140Z,19.57
2022-09-10T00:31:29.989Z,19.55
2022-09-10T00:34:01.229Z,19.52
2022-09-10T00:36:32.902Z,19.49
2022-09-10T00:39:03.623Z,19.48
2022-09-10T00:41:32.355Z,19.50
2022-09-10T00:44:02.414Z,19.47
2022-09-10T00:46:37.265Z,19.43
2022-09-10T00:49:14.923Z,19.43
2022-09-10T00:51:43.450Z,19.36
2022-09-10T00:54:11.961Z,19.33
2022-09-10T00:56:40.375Z,19.32
2022-09-10T00:59:11.069Z,19.36
2022-09-10T01:01:41.354Z,19.37
2022-09-10T01:04:11.010Z,19.35
2022-09-10T01:06:40.413Z,19.39
2022-09-10T01:09:09.969Z,19.36
2022-09-10T01:11:57.774Z,19.31
2022-09-10T01:14:40.899Z,19.23
2022-09-10T01:17:18.499Z,19.10
2022-09-10T01:20:18.694Z,19.03
2022-09-10T01:23:06.290Z,19.06
2022-09-10T01:25:44.498Z,19.11
2022-09-10T01:28:19.342Z,19.08
2022-09-10T01:30:54.706Z,19.04
2022-09-10T01:33:27.862Z,19.07
2022-09-10T01:36:01.987Z,19.08
2022-09-10T01:38:34.610Z,19.01
2022-09-10T01:41:03.061Z,19.03
2022-09-10T01:43:33.337Z,18.96
2022-09-10T01:46:15.292Z,18.89
2022-09-10T01:49:09.952Z,18.85
2022-09-10T01:51:54.263Z,18.84
2022-09-10T01:54:37.451Z,18.87
2022-09-10T01:57:21.541Z,18.86
2022-09-10T02:00:00.011Z,18.84
2022-09-10T02:02:32.644Z,18.81
2022-09-10T02:05:03.020Z,18.79
2022-09-10T02:07:33.299Z,18.78
2022-09-10T02:10:02.695Z,18.76
2022-09-10T02:12:31.085Z,18.73
2022-09-10T02:15:00.565Z,18.78
2022-09-10T02:17:32.348Z,18.78
2022-09-10T02:20:03.377Z,18.76
2022-09-10T02:22:33.618Z,18.75
2022-09-10T02:25:01.632Z,18.75
2022-09-10T02:27:30.608Z,18.77
2022-09-10T02:30:00.063Z,18.80
2022-09-10T02:32:28.356Z,18.78
2022-09-10T02:34:56.362Z,18.76
2022-09-10T02:37:24.419Z,18.78
2022-09-10T02:39:52.591Z,18.79
2022-09-10T02:42:20.671Z,18.77
2022-09-10T02:44:49.925Z,18.72
2022-09-10T02:47:19.503Z,18.69
2022-09-10T02:49:47.522Z,18.62
2022-09-10T02:52:15.671Z,18.59
2022-09-10T02:54:43.944Z,18.67
2022-09-10T02:57:12.312Z,18.77
2022-09-10T02:59:40.385Z,18.77
2022-09-10T03:02:08.368Z,18.75
2022-09-10T03:04:38.253Z,18.73
2022-09-10T03:07:06.266Z,18.70
2022-09-10T03:09:35.752Z,18.74
2022-09-10T03:12:03.988Z,18.72
2022-09-10T03:14:32.057Z,18.69
2022-09-10T03:17:00.329Z,18.72
2022-09-10T03:19:28.440Z,18.67
2022-09-10T03:21:58.220Z,18.67
2022-09-10T03:24:26.547Z,18.58
2022-09-10T03:26:54.497Z,18.47
2022-09-10T03:29:23.217Z,18.46
2022-09-10T03:31:51.800Z,18.44
2022-09-10T03:34:20.508Z,18.43
2022-09-10T03:36:48.585Z,18.41
2022-09-10T03:39:19.098Z,18.39
2022-09-10T03:41:48.261Z,18.36
2022-09-10T03:44:17.336Z,18.35
2022-09-10T03:46:45.747Z,18.34
2022-09-10T03:49:13.758Z,18.32
2022-09-10T03:51:41.861Z,18.31
2022-09-10T03:54:10.234Z,18.26
2022-09-10T03:56:39.834Z,18.28
2022-09-10T03:59:07.964Z,18.31
2022-09-10T04:01:37.098Z,18.34
2022-09-10T04:04:05.071Z,18.35
2022-09-10T04:06:33.504Z,18.36
2022-09-10T04:09:01.903Z,18.42
2022-09-10T04:11:30.228Z,18.43
2022-09-10T04:14:00.228Z,18.38
2022-09-10T04:16:28.286Z,18.36
2022-09-10T04:18:56.282Z,18.38
2022-09-10T04:21:24.716Z,18.46
2022-09-10T04:23:55.936Z,18.57
2022-09-10T04:26:24.125Z,18.63
2022-09-10T04:28:52.658Z,18.70
2022-09-10T04:31:22.118Z,18.71
2022-09-10T04:33:50.787Z,18.80
2022-09-10T04:36:19.286Z,18.87
2022-09-10T04:38:47.646Z,18.94
2022-09-10T04:41:18.393Z,18.94
2022-09-10T04:43:47.375Z,19.00
2022-09-10T04:46:16.090Z,19.05
2022-09-10T04:48:45.556Z,19.17
2022-09-10T04:51:16.654Z,19.23
2022-09-10T04:53:46.364Z,19.30
2022-09-10T04:56:15.031Z,19.34
2022-09-10T04:58:44.313Z,19.49
2022-09-10T05:01:12.816Z,19.60
2022-09-10T05:03:41.256Z,19.51
2022-09-10T05:06:10.921Z,19.42
2022-09-10T05:08:39.119Z,19.53
2022-09-10T05:11:07.707Z,19.59
2022-09-10T05:13:35.956Z,19.69
2022-09-10T05:16:04.102Z,19.78
2022-09-10T05:18:32.173Z,19.74
2022-09-10T05:21:00.219Z,19.75
2022-09-10T05:23:29.702Z,19.85
2022-09-10T05:25:57.962Z,19.93
2022-09-10T05:28:26.256Z,20.02
2022-09-10T05:30:54.822Z,20.13
2022-09-10T05:33:23.195Z,20.16
2022-09-10T05:35:52.092Z,20.49
2022-09-10T05:38:20.618Z,20.65
2022-09-10T05:40:50.446Z,20.77
2022-09-10T05:43:18.421Z,20.93
2022-09-10T05:45:47.271Z,20.97
2022-09-10T05:48:15.409Z,21.02
2022-09-10T05:50:45.584Z,21.06
2022-09-10T05:53:13.834Z,21.13
2022-09-10T05:55:41.876Z,21.06
2022-09-10T05:58:11.376Z,21.03
2022-09-10T06:00:39.347Z,21.05
2022-09-10T06:03:07.921Z,21.17
2022-09-10T06:05:36.036Z,21.48
2022-09-10T06:08:08.565Z,21.79
2022-09-10T06:10:37.600Z,22.11
2022-09-10T06:13:06.868Z,22.33
2022-09-10T06:15:38.040Z,22.45
2022-09-10T06:18:06.208Z,22.38
2022-09-10T06:20:34.344Z,22.41
2022-09-10T06:23:02.533Z,22.27
2022-09-10T06:25:31.174Z,22.30
2022-09-10T06:27:59.673Z,22.39
2022-09-10T06:30:28.573Z,22.43
2022-09-10T06:32:58.535Z,22.55
2022-09-10T06:35:27.225Z,22.80
2022-09-10T06:37:56.115Z,22.93
2022-09-10T06:40:27.729Z,22.91
2022-09-10T06:42:56.274Z,22.69
2022-09-10T06:45:24.225Z,22.77
2022-09-10T06:48:37.082Z,22.87
2022-09-10T06:50:51.737Z,22.81
2022-09-10T06:53:22.179Z,22.81
2022-09-10T06:55:50.989Z,22.89
2022-09-10T06:58:19.923Z,23.02
2022-09-10T07:00:48.570Z,23.16
2022-09-10T07:03:17.038Z,23.05
2022-09-10T07:05:47.718Z,22.86
2022-09-10T07:08:17.497Z,22.93
2022-09-10T07:10:46.694Z,22.98
2022-09-10T07:13:15.254Z,23.01
2022-09-10T07:15:47.614Z,22.94
2022-09-10T07:18:15.727Z,22.74
2022-09-10T07:20:44.581Z,22.98
2022-09-10T07:23:14.752Z,23.22
2022-09-10T07:25:43.246Z,23.41
2022-09-10T07:28:14.879Z,23.57
2022-09-10T07:30:43.733Z,23.72
2022-09-10T07:33:12.366Z,23.99
2022-09-10T07:35:40.940Z,23.96
2022-09-10T07:38:15.651Z,24.09
2022-09-10T07:40:44.175Z,24.10
2022-09-10T07:43:12.203Z,24.19
2022-09-10T07:45:42.011Z,24.27
2022-09-10T07:48:11.966Z,24.43
2022-09-10T07:50:40.025Z,24.66
2022-09-10T07:53:08.023Z,24.59
2022-09-10T07:55:37.435Z,24.76
2022-09-10T07:58:05.435Z,25.07
2022-09-10T08:00:33.857Z,25.22
2022-09-10T08:03:03.166Z,25.33
2022-09-10T08:05:31.436Z,25.43
2022-09-10T08:07:59.607Z,25.61
2022-09-10T08:10:27.578Z,25.62
2022-09-10T08:12:57.462Z,25.72
2022-09-10T08:15:25.465Z,25.76
2022-09-10T08:17:53.657Z,25.92
2022-09-10T08:20:22.534Z,26.02
2022-09-10T08:22:50.715Z,26.15
2022-09-10T08:25:20.146Z,26.08
2022-09-10T08:27:49.199Z,25.86
2022-09-10T08:30:18.798Z,25.74
2022-09-10T08:32:47.239Z,25.59
2022-09-10T08:35:15.353Z,25.45
2022-09-10T08:37:43.791Z,25.72
2022-09-10T08:40:13.379Z,25.74
2022-09-10T08:42:46.078Z,25.80
2022-09-10T08:45:21.025Z,26.10
2022-09-10T08:48:02.582Z,26.37
2022-09-10T08:50:38.028Z,26.55
2022-09-10T08:53:20.263Z,26.81
2022-09-10T08:55:49.521Z,26.80
2022-09-10T08:58:23.659Z,27.14
2022-09-10T09:00:58.769Z,27.34
2022-09-10T09:03:30.468Z,27.25
2022-09-10T09:06:00.852Z,27.07
2022-09-10T09:08:31.577Z,27.03
2022-09-10T09:11:11.073Z,27.12
2022-09-10T09:13:55.597Z,27.09
2022-09-10T09:16:45.398Z,26.71
2022-09-10T09:19:18.702Z,26.84
2022-09-10T09:21:53.569Z,27.14
2022-09-10T09:24:25.187Z,27.23
2022-09-10T09:26:56.816Z,27.42
2022-09-10T09:29:28.668Z,27.61
2022-09-10T09:32:00.985Z,27.85
2022-09-10T09:34:35.097Z,28.20
2022-09-10T09:37:05.682Z,27.78
2022-09-10T09:39:40.103Z,27.50
2022-09-10T09:42:18.259Z,27.47
2022-09-10T09:44:55.031Z,27.18
2022-09-10T09:47:26.293Z,27.35
2022-09-10T09:49:54.426Z,27.23
2022-09-10T09:52:24.900Z,27.04
2022-09-10T09:55:15.465Z,27.22
2022-09-10T09:57:43.939Z,27.37
2022-09-10T10:00:36.605Z,27.47
2022-09-10T10:03:16.529Z,27.68
2022-09-10T10:05:45.029Z,27.81
2022-09-10T10:08:30.263Z,27.86
2022-09-10T10:10:58.770Z,27.78
2022-09-10T10:13:36.112Z,27.62
2022-09-10T10:16:16.882Z,27.40
2022-09-10T10:18:47.020Z,27.18
2022-09-10T10:21:18.703Z,27.28
2022-09-10T10:23:47.790Z,27.58
2022-09-10T10:26:34.988Z,27.81
2022-09-10T10:29:06.745Z,28.12
2022-09-10T10:31:41.433Z,28.40
2022-09-10T10:34:37.424Z,28.38
2022-09-10T10:37:11.012Z,28.12
2022-09-10T10:40:06.250Z,27.92
2022-09-10T10:42:39.619Z,27.83
2022-09-10T10:45:19.296Z,27.96
2022-09-10T10:47:55.219Z,28.14
2022-09-10T10:50:37.176Z,27.77
2022-09-10T10:53:26.883Z,27.77
2022-09-10T10:56:07.471Z,27.92
2022-09-10T10:58:54.083Z,28.00
2022-09-10T11:01:24.778Z,28.06
2022-09-10T11:04:01.176Z,28.09
2022-09-10T11:06:38.410Z,28.20
2022-09-10T11:09:09.436Z,28.19
2022-09-10T11:11:49.239Z,28.17
2022-09-10T11:14:23.266Z,28.09
2022-09-10T11:16:58.800Z,28.01
2022-09-10T11:19:35.851Z,27.80
2022-09-10T11:22:13.582Z,27.74
2022-09-10T11:24:50.454Z,27.74
2022-09-10T11:27:21.913Z,27.93
2022-09-10T11:29:56.293Z,28.02
2022-09-10T11:32:32.599Z,28.21
2022-09-10T11:35:08.626Z,28.44
2022-09-10T11:37:52.906Z,28.77
2022-09-10T11:40:30.157Z,28.91
2022-09-10T11:43:02.249Z,28.98
2022-09-10T11:45:41.585Z,29.00
2022-09-10T11:48:19.865Z,29.15
2022-09-10T11:50:54.793Z,29.46
2022-09-10T11:53:26.645Z,29.79
2022-09-10T11:56:28.706Z,29.93
2022-09-10T11:59:09.837Z,30.31
2022-09-10T12:02:04.924Z,30.54
2022-09-10T12:04:47.650Z,30.83
2022-09-10T12:07:27.896Z,30.57
2022-09-10T12:10:09.954Z,30.59
2022-09-10T12:12:44.460Z,30.37
2022-09-10T12:15:19.916Z,30.32
2022-09-10T12:17:55.116Z,30.51
2022-09-10T12:20:30.271Z,30.74
2022-09-10T12:22:59.779Z,31.08
2022-09-10T12:25:34.643Z,31.15
2022-09-10T12:28:07.885Z,31.22
2022-09-10T12:31:03.378Z,31.21
2022-09-10T12:34:12.483Z,31.17
2022-09-10T12:37:19.864Z,30.98
2022-09-10T12:39:48.638Z,30.90
2022-09-10T12:42:36.781Z,30.85
2022-09-10T12:45:05.354Z,30.88
2022-09-10T12:47:50.396Z,31.01
2022-09-10T12:50:47.440Z,31.03
2022-09-10T12:53:48.592Z,31.08
2022-09-10T12:56:41.654Z,31.00
2022-09-10T12:59:57.603Z,30.84
2022-09-10T13:02:33.067Z,30.80
2022-09-10T13:05:05.662Z,30.82
2022-09-10T13:07:41.843Z,30.93
2022-09-10T13:10:22.053Z,31.08
2022-09-10T13:12:55.784Z,31.25
2022-09-10T13:15:29.972Z,31.45
2022-09-10T13:18:24.877Z,31.62
2022-09-10T13:20:53.202Z,31.65
2022-09-10T13:23:25.245Z,31.60
2022-09-10T13:25:53.708Z,31.54
2022-09-10T13:29:01.071Z,31.44
2022-09-10T13:31:33.504Z,31.37
2022-09-10T13:34:41.264Z,31.33
2022-09-10T13:37:34.893Z,31.22
2022-09-10T13:40:40.718Z,31.29
2022-09-10T13:43:25.645Z,31.32
2022-09-10T13:45:59.518Z,31.35
2022-09-10T13:48:35.611Z,31.34
2022-09-10T13:51:19.038Z,31.45
2022-09-10T13:53:49.585Z,31.48
2022-09-10T13:56:22.559Z,31.55
2022-09-10T13:58:53.651Z,31.55
2022-09-10T14:01:21.695Z,31.53
2022-09-10T14:03:52.599Z,31.39
2022-09-10T14:06:23.182Z,30.90
2022-09-10T14:08:54.922Z,30.44
2022-09-10T14:11:26.012Z,30.14
2022-09-10T14:13:58.608Z,29.87
2022-09-10T14:16:31.897Z,29.69
2022-09-10T14:19:05.334Z,29.39
2022-09-10T14:21:33.723Z,29.21
2022-09-10T14:24:01.709Z,29.22
2022-09-10T14:26:33.814Z,29.33
2022-09-10T14:29:04.035Z,29.38
2022-09-10T14:31:36.290Z,29.44
2022-09-10T14:34:32.171Z,29.51
2022-09-10T14:37:01.946Z,29.58
2022-09-10T14:39:30.359Z,29.66
2022-09-10T14:42:24.129Z,29.71
2022-09-10T14:44:52.745Z,29.73
2022-09-10T14:47:32.496Z,29.70
2022-09-10T14:50:31.158Z,29.49
2022-09-10T14:52:59.497Z,29.37
2022-09-10T14:55:29.554Z,29.19
2022-09-10T14:57:58.303Z,29.15
2022-09-10T15:00:27.101Z,29.09
2022-09-10T15:02:57.499Z,29.10
2022-09-10T15:05:27.269Z,29.11
2022-09-10T15:07:55.284Z,29.12
2022-09-10T15:10:23.355Z,29.11
2022-09-10T15:12:53.003Z,29.13
2022-09-10T15:15:21.318Z,29.18
2022-09-10T15:17:49.290Z,29.20
2022-09-10T15:20:17.719Z,29.21
2022-09-10T15:22:47.143Z,29.22
2022-09-10T15:25:33.919Z,29.23
2022-09-10T15:28:04.293Z,29.21
2022-09-10T15:30:32.451Z,29.19
2022-09-10T15:33:00.681Z,29.13
2022-09-10T15:35:28.814Z,29.07
2022-09-10T15:37:58.327Z,29.00
2022-09-10T15:40:26.308Z,28.96
2022-09-10T15:42:54.721Z,28.94
2022-09-10T15:45:22.756Z,28.92
2022-09-10T15:47:51.224Z,28.90
2022-09-10T15:50:19.217Z,28.91
2022-09-10T15:52:47.553Z,28.91
2022-09-10T15:55:19.314Z,28.87
2022-09-10T15:57:49.798Z,28.90
2022-09-10T16:00:19.035Z,28.96
2022-09-10T16:02:52.031Z,28.99
2022-09-10T16:05:21.173Z,29.02
2022-09-10T16:07:49.636Z,29.03
2022-09-10T16:10:19.283Z,29.00
2022-09-10T16:12:47.328Z,29.00
2022-09-10T16:15:15.536Z,28.88
2022-09-10T16:17:43.718Z,28.75
2022-09-10T16:20:11.983Z,28.61
2022-09-10T16:22:39.954Z,28.42
2022-09-10T16:25:08.919Z,28.35
2022-09-10T16:27:42.587Z,28.24
2022-09-10T16:30:12.875Z,28.29
2022-09-10T16:32:40.849Z,28.20
2022-09-10T16:35:09.816Z,28.00
2022-09-10T16:37:37.813Z,27.77
2022-09-10T16:40:07.239Z,27.63
2022-09-10T16:42:35.349Z,27.46
2022-09-10T16:45:05.368Z,27.34
2022-09-10T16:47:33.735Z,27.23
2022-09-10T16:50:01.743Z,27.14
2022-09-10T16:52:31.159Z,26.98
2022-09-10T16:54:59.234Z,26.92
2022-09-10T16:57:27.176Z,26.81
2022-09-10T16:59:55.200Z,26.69
2022-09-10T17:02:24.610Z,26.63
2022-09-10T17:04:52.584Z,26.50
2022-09-10T17:07:20.567Z,26.38
2022-09-10T17:09:48.568Z,26.31
2022-09-10T17:12:16.830Z,26.22
2022-09-10T17:14:44.837Z,26.13
2022-09-10T17:17:13.948Z,26.11
2022-09-10T17:19:44.118Z,26.00
2022-09-10T17:22:12.167Z,25.90
2022-09-10T17:24:40.191Z,25.83
2022-09-10T17:27:08.345Z,25.77
2022-09-10T17:29:36.422Z,25.70
2022-09-10T17:32:05.470Z,25.68
2022-09-10T17:34:33.969Z,25.61
2022-09-10T17:37:03.821Z,25.57
2022-09-10T17:39:31.934Z,25.52
2022-09-10T17:42:00.260Z,25.49
2022-09-10T17:44:28.562Z,25.41
2022-09-10T17:46:56.529Z,25.42
2022-09-10T17:49:24.818Z,25.34
2022-09-10T17:51:53.341Z,25.34
2022-09-10T17:54:23.494Z,25.34
2022-09-10T17:56:51.515Z,25.32
2022-09-10T17:59:19.758Z,25.22
2022-09-10T18:01:47.905Z,25.23
2022-09-10T18:04:16.032Z,25.10
2022-09-10T18:06:46.819Z,25.01
2022-09-10T18:09:17.569Z,24.94
2022-09-10T18:11:47.466Z,24.89
2022-09-10T18:14:18.583Z,24.88
2022-09-10T18:16:47.329Z,24.80
2022-09-10T18:19:18.043Z,24.83
2022-09-10T18:24:32.982Z,24.84
2022-09-10T18:27:04.695Z,24.72
2022-09-10T18:29:33.119Z,24.67
2022-09-10T18:32:01.825Z,24.60
2022-09-10T18:34:32.119Z,24.59
2022-09-10T18:37:01.999Z,24.54
2022-09-10T18:39:32.092Z,24.52
2022-09-10T18:42:01.028Z,24.52
2022-09-10T18:44:33.333Z,24.45
2022-09-10T18:47:01.535Z,24.42
2022-09-10T18:49:29.710Z,24.34
2022-09-10T18:51:58.306Z,24.37
2022-09-10T18:54:29.026Z,24.36
2022-09-10T18:56:58.239Z,24.28
2022-09-10T18:59:27.127Z,24.23
2022-09-10T19:01:57.211Z,24.09
2022-09-10T19:04:27.456Z,23.97
2022-09-10T19:06:56.865Z,23.88
2022-09-10T19:09:26.881Z,23.83
2022-09-10T19:11:56.285Z,23.81
2022-09-10T19:14:26.373Z,23.80
2022-09-10T19:16:57.554Z,23.74
2022-09-10T19:19:26.990Z,23.77
2022-09-10T19:21:57.063Z,23.80
2022-09-10T19:24:44.055Z,23.80
2022-09-10T19:27:13.895Z,23.75
2022-09-10T19:29:43.215Z,23.73
2022-09-10T19:32:13.009Z,23.72
2022-09-10T19:34:41.244Z,23.76
2022-09-10T19:37:09.930Z,23.77
2022-09-10T19:39:38.064Z,23.76
2022-09-10T19:42:06.897Z,23.73
2022-09-10T19:44:35.473Z,23.67
2022-09-10T19:47:04.504Z,23.59
2022-09-10T19:49:34.246Z,23.49
2022-09-10T19:52:04.392Z,23.44
2022-09-10T19:54:32.518Z,23.31
2022-09-10T19:57:00.493Z,23.26
2022-09-10T19:59:29.660Z,23.18
2022-09-10T20:01:57.795Z,23.15
2022-09-10T20:04:26.031Z,23.11
2022-09-10T20:06:55.935Z,23.02
2022-09-10T20:09:24.241Z,23.00
2022-09-10T20:11:52.272Z,22.96
2022-09-10T20:14:21.066Z,23.01
2022-09-10T20:16:49.336Z,23.00
2022-09-10T20:19:20.357Z,22.98
2022-09-10T20:21:48.855Z,22.90
2022-09-10T20:24:18.418Z,22.96
2022-09-10T20:26:47.136Z,22.90
2022-09-10T20:29:18.032Z,23.02
2022-09-10T20:31:47.113Z,23.03
2022-09-10T20:34:17.445Z,23.02
2022-09-10T20:36:45.595Z,23.08
2022-09-10T20:39:15.874Z,23.18
2022-09-10T20:41:46.198Z,23.24
2022-09-10T20:44:16.095Z,23.28
2022-09-10T20:46:44.622Z,23.26
2022-09-10T20:49:13.686Z,23.33
2022-09-10T20:51:42.047Z,23.37
2022-09-10T20:54:13.211Z,23.46
2022-09-10T20:56:41.633Z,23.62
2022-09-10T20:59:14.698Z,23.70
2022-09-10T21:01:46.152Z,23.82
2022-09-10T21:04:14.867Z,23.91
2022-09-10T21:06:43.305Z,23.93
2022-09-10T21:09:11.509Z,23.97
2022-09-10T21:11:39.760Z,23.97
2022-09-10T21:14:08.876Z,24.05
2022-09-10T21:16:40.109Z,24.02
2022-09-10T21:19:10.908Z,24.00
2022-09-10T21:21:40.599Z,23.99
2022-09-10T21:24:11.054Z,23.95
2022-09-10T21:26:41.892Z,23.97
2022-09-10T21:29:12.546Z,23.95
2022-09-10T21:31:42.859Z,23.91
2022-09-10T21:34:10.905Z,23.86
2022-09-10T21:36:41.268Z,23.90
2022-09-10T21:39:13.969Z,23.91
2022-09-10T21:41:44.257Z,23.91
2022-09-10T21:44:15.234Z,23.91
2022-09-10T21:46:45.903Z,23.82
2022-09-10T21:49:14.259Z,23.87
2022-09-10T21:51:42.743Z,23.94
2022-09-10T21:54:15.592Z,24.00
2022-09-10T21:56:43.563Z,24.01
2022-09-10T21:59:13.015Z,23.97
2022-09-10T22:01:43.334Z,23.96
2022-09-10T22:04:13.660Z,23.93
2022-09-10T22:06:41.705Z,23.92
2022-09-10T22:09:11.966Z,23.93
2022-09-10T22:11:42.006Z,23.90
2022-09-10T22:14:14.084Z,23.87
2022-09-10T22:16:42.266Z,23.87
2022-09-10T22:19:14.214Z,23.86
2022-09-10T22:21:42.218Z,23.86
2022-09-10T22:24:12.618Z,23.85
2022-09-10T22:26:43.499Z,23.78
2022-09-10T22:29:12.656Z,23.80
2022-09-10T22:31:40.852Z,23.76
2022-09-10T22:34:11.584Z,23.74
2022-09-10T22:36:43.944Z,23.71
2022-09-10T22:39:13.998Z,23.70
2022-09-10T22:41:43.525Z,23.70
2022-09-10T22:44:12.330Z,23.64
2022-09-10T22:46:41.648Z,23.63
2022-09-10T22:49:10.290Z,23.63
2022-09-10T22:51:42.059Z,23.57
2022-09-10T22:54:11.375Z,23.57
2022-09-10T22:56:40.549Z,23.53
2022-09-10T22:59:12.386Z,23.52
2022-09-10T23:01:41.048Z,23.48
2022-09-10T23:04:10.419Z,23.45
2022-09-10T23:06:40.706Z,23.41
2022-09-10T23:09:11.690Z,23.39
2022-09-10T23:11:40.485Z,23.31
2022-09-10T23:14:13.077Z,23.33
2022-09-10T23:16:42.634Z,23.31
2022-09-10T23:19:13.290Z,23.29
2022-09-10T23:21:44.367Z,23.29
2022-09-10T23:24:16.771Z,23.27
2022-09-10T23:26:45.337Z,23.23
2022-09-10T23:29:16.950Z,23.21
2022-09-10T23:31:47.587Z,23.20
2022-09-10T23:34:17.206Z,23.18
2022-09-10T23:36:48.531Z,23.13
2022-09-10T23:39:19.815Z,23.15
2022-09-10T23:41:48.016Z,23.12
2022-09-10T23:44:16.125Z,23.09
2022-09-10T23:46:44.745Z,23.08
2022-09-10T23:49:13.425Z,23.06
2022-09-10T23:51:41.835Z,23.05
2022-09-10T23:54:12.501Z,23.07
2022-09-10T23:56:40.789Z,23.05
2022-09-10T23:59:09.671Z,23.02
